createdAt,value
2023-05-22T00:00:36.335Z,50.40
2023-05-22T00:03:04.694Z,51.22
2023-05-22T00:05:34.398Z,48.45
2023-05-22T00:08:04.703Z,51.53
2023-05-22T00:10:32.059Z,50.83
2023-05-22T00:12:59.394Z,50.17
2023-05-22T00:15:26.717Z,49.92
2023-05-22T00:17:55.117Z,48.35
2023-05-22T00:20:23.302Z,48.78
2023-05-22T00:22:50.779Z,50.75
2023-05-22T00:25:20.233Z,49.15
2023-05-22T00:27:48.082Z,50.25
2023-05-22T00:30:15.544Z,50.90
2023-05-22T00:32:42.881Z,47.03
2023-05-22T00:35:10.650Z,49.05
2023-05-22T00:37:37.968Z,47.17
2023-05-22T00:40:05.926Z,48.10
2023-05-22T00:42:34.618Z,43.75
2023-05-22T00:45:01.987Z,44.47
2023-05-22T00:47:29.888Z,46.13
2023-05-22T00:49:57.252Z,46.70
2023-05-22T00:52:24.728Z,47.50
2023-05-22T00:54:54.515Z,46.92
2023-05-22T00:57:22.680Z,48.90
2023-05-22T00:59:51.429Z,49.90
2023-05-22T01:02:18.900Z,51.45
2023-05-22T01:04:48.331Z,50.90
2023-05-22T01:07:16.430Z,49.92
2023-05-22T01:09:43.788Z,53.22
2023-05-22T01:12:14.226Z,49.75
2023-05-22T01:14:44.883Z,49.67
2023-05-22T01:17:22.521Z,48.92
2023-05-22T01:20:06.690Z,50.10
2023-05-22T01:22:58.170Z,47.45
2023-05-22T01:25:35.741Z,49.55
2023-05-22T01:28:12.685Z,48.72
2023-05-22T01:30:46.082Z,48.85
2023-05-22T01:33:15.913Z,49.88
2023-05-22T01:35:44.992Z,52.63
2023-05-22T01:38:12.449Z,53.55
2023-05-22T01:40:40.461Z,54.75
2023-05-22T01:43:08.656Z,54.60
2023-05-22T01:45:36.016Z,52.50
2023-05-22T01:48:05.104Z,54.63
2023-05-22T01:50:32.576Z,52.63
2023-05-22T01:53:02.736Z,55.05
2023-05-22T01:55:35.072Z,53.90
2023-05-22T01:58:09.147Z,53.22
2023-05-22T02:00:37.596Z,54.70
2023-05-22T02:03:08.054Z,55.83
2023-05-22T02:05:39.407Z,55.13
2023-05-22T02:08:07.502Z,54.92
2023-05-22T02:10:35.030Z,54.33
2023-05-22T02:13:02.538Z,53.65
2023-05-22T02:15:29.987Z,55.28
2023-05-22T02:18:00.288Z,54.03
2023-05-22T02:20:29.019Z,53.08
2023-05-22T02:22:56.337Z,54.53
2023-05-22T02:25:23.681Z,50.42
2023-05-22T02:27:51.034Z,51.03
2023-05-22T02:30:18.369Z,52.15
2023-05-22T02:32:45.692Z,49.33
2023-05-22T02:35:13.083Z,48.05
2023-05-22T02:37:42.131Z,45.25
2023-05-22T02:40:09.893Z,44.65
2023-05-22T02:42:37.265Z,44.60
2023-05-22T02:45:04.920Z,44.38
2023-05-22T02:47:32.348Z,43.97
2023-05-22T02:49:59.764Z,42.38
2023-05-22T02:52:28.200Z,41.80
2023-05-22T02:54:57.007Z,41.88
2023-05-22T02:57:24.343Z,41.55
2023-05-22T02:59:53.988Z,43.75
2023-05-22T03:02:21.363Z,40.45
2023-05-22T03:04:48.720Z,40.53
2023-05-22T03:07:16.890Z,42.05
2023-05-22T03:09:44.417Z,42.33
2023-05-22T03:12:13.276Z,40.92
2023-05-22T03:14:40.634Z,39.30
2023-05-22T03:17:07.964Z,38.78
2023-05-22T03:19:35.342Z,37.65
2023-05-22T03:22:02.747Z,36.50
2023-05-22T03:24:30.429Z,35.17
2023-05-22T03:26:57.781Z,32.78
2023-05-22T03:29:26.653Z,32.88
2023-05-22T03:31:54.573Z,32.58
2023-05-22T03:34:27.260Z,33.95
2023-05-22T03:36:54.715Z,34.67
2023-05-22T03:39:22.127Z,32.80
2023-05-22T03:41:49.461Z,34.28
2023-05-22T03:44:16.804Z,33.33
2023-05-22T03:46:45.536Z,34.35
2023-05-22T03:49:12.874Z,34.92
2023-05-22T03:51:40.198Z,36.13
2023-05-22T03:54:07.548Z,36.35
2023-05-22T03:56:35.127Z,37.90
2023-05-22T03:59:02.459Z,41.20
2023-05-22T04:01:31.428Z,39.97
2023-05-22T04:04:00.177Z,38.88
2023-05-22T04:06:27.609Z,41.80
2023-05-22T04:08:54.988Z,43.20
2023-05-22T04:11:22.328Z,41.80
2023-05-22T04:13:50.294Z,43.42
2023-05-22T04:16:18.185Z,43.85
2023-05-22T04:18:45.649Z,41.92
2023-05-22T04:21:14.596Z,44.75
2023-05-22T04:23:43.335Z,45.15
2023-05-22T04:26:10.733Z,47.58
2023-05-22T04:28:38.101Z,44.67
2023-05-22T04:31:07.295Z,44.83
2023-05-22T04:33:35.268Z,45.58
2023-05-22T04:36:02.787Z,44.65
2023-05-22T04:38:31.566Z,44.72
2023-05-22T04:41:00.272Z,46.38
2023-05-22T04:43:27.680Z,45.50
2023-05-22T04:45:56.343Z,46.03
2023-05-22T04:48:23.678Z,46.53
2023-05-22T04:50:51.079Z,46.22
2023-05-22T04:53:18.509Z,44.30
2023-05-22T04:55:47.182Z,44.75
2023-05-22T04:58:14.528Z,46.50
2023-05-22T05:00:42.143Z,44.58
2023-05-22T05:03:11.594Z,43.55
2023-05-22T05:05:39.061Z,44.17
2023-05-22T05:08:06.709Z,45.22
2023-05-22T05:10:34.409Z,46.28
2023-05-22T05:13:03.097Z,45.33
2023-05-22T05:15:30.474Z,44.70
2023-05-22T05:17:57.860Z,46.03
2023-05-22T05:20:25.669Z,45.70
2023-05-22T05:22:52.981Z,48.20
2023-05-22T05:25:20.355Z,45.92
2023-05-22T05:27:47.698Z,44.70
2023-05-22T05:30:17.627Z,44.17
2023-05-22T05:32:47.217Z,46.22
2023-05-22T05:35:14.692Z,45.78
2023-05-22T05:37:43.295Z,43.90
2023-05-22T05:40:10.933Z,45.33
2023-05-22T05:42:38.397Z,44.25
2023-05-22T05:45:06.117Z,46.08
2023-05-22T05:47:34.956Z,46.25
2023-05-22T05:50:02.385Z,50.38
2023-05-22T05:52:32.523Z,51.50
2023-05-22T05:55:00.839Z,55.05
2023-05-22T05:57:28.460Z,51.75
2023-05-22T05:59:55.812Z,49.63
2023-05-22T06:02:23.245Z,51.10
2023-05-22T06:04:53.754Z,54.25
2023-05-22T06:07:21.163Z,53.30
2023-05-22T06:09:48.533Z,50.55
2023-05-22T06:12:15.991Z,49.45
2023-05-22T06:14:43.429Z,53.10
2023-05-22T06:17:10.996Z,49.83
2023-05-22T06:19:38.366Z,59.70
2023-05-22T06:22:07.202Z,62.55
2023-05-22T06:24:34.555Z,60.53
2023-05-22T06:27:02.394Z,57.33
2023-05-22T06:29:29.743Z,54.45
2023-05-22T06:31:57.137Z,55.83
2023-05-22T06:34:25.632Z,53.42
2023-05-22T06:36:53.066Z,51.42
2023-05-22T06:39:21.786Z,50.15
2023-05-22T06:41:49.141Z,51.80
2023-05-22T06:44:17.040Z,52.78
2023-05-22T06:46:44.381Z,50.33
2023-05-22T06:49:11.741Z,46.88
2023-05-22T06:51:39.088Z,44.60
2023-05-22T06:54:08.008Z,43.35
2023-05-22T06:56:36.714Z,42.13
2023-05-22T06:59:06.133Z,40.10
2023-05-22T07:01:34.029Z,44.10
2023-05-22T07:04:01.896Z,46.13
2023-05-22T07:06:32.225Z,47.10
2023-05-22T07:08:59.554Z,49.17
2023-05-22T07:11:26.903Z,47.83
2023-05-22T07:13:55.658Z,48.22
2023-05-22T07:16:23.200Z,45.50
2023-05-22T07:18:50.859Z,44.20
2023-05-22T07:21:18.327Z,40.72
2023-05-22T07:23:45.679Z,43.58
2023-05-22T07:26:13.030Z,43.40
2023-05-22T07:28:40.375Z,42.35
2023-05-22T07:31:09.088Z,44.72
2023-05-22T07:33:36.467Z,43.53
2023-05-22T07:36:03.893Z,37.65
2023-05-22T07:38:31.209Z,37.90
2023-05-22T07:40:58.620Z,35.47
2023-05-22T07:43:25.951Z,37.22
2023-05-22T07:45:54.056Z,37.25
2023-05-22T07:48:22.823Z,36.28
2023-05-22T07:50:50.150Z,35.85
2023-05-22T07:53:17.543Z,37.63
2023-05-22T07:55:45.003Z,34.67
2023-05-22T07:58:12.365Z,34.72
2023-05-22T08:00:39.706Z,34.00
2023-05-22T08:03:07.190Z,36.95
2023-05-22T08:05:36.022Z,38.83
2023-05-22T08:08:03.861Z,36.85
2023-05-22T08:10:46.571Z,36.38
2023-05-22T08:13:19.063Z,34.30
2023-05-22T08:15:46.486Z,33.42
2023-05-22T08:18:13.973Z,32.40
2023-05-22T08:20:42.694Z,31.60
2023-05-22T08:23:10.026Z,33.55
2023-05-22T08:25:37.722Z,32.08
2023-05-22T08:28:06.289Z,33.28
2023-05-22T08:30:33.743Z,30.98
2023-05-22T08:33:01.230Z,32.03
2023-05-22T08:35:28.580Z,30.20
2023-05-22T08:37:57.269Z,30.73
2023-05-22T08:40:24.930Z,28.33
2023-05-22T08:42:54.288Z,28.52
2023-05-22T08:45:21.675Z,29.00
2023-05-22T08:47:52.953Z,29.83
2023-05-22T08:50:20.890Z,32.25
2023-05-22T08:52:51.215Z,30.30
2023-05-22T08:55:20.318Z,31.58
2023-05-22T08:57:48.087Z,32.20
2023-05-22T09:00:16.128Z,31.95
2023-05-22T09:02:43.679Z,33.55
2023-05-22T09:05:11.178Z,31.95
2023-05-22T09:07:40.679Z,33.00
2023-05-22T09:10:08.441Z,33.50
2023-05-22T09:12:37.158Z,33.88
2023-05-22T09:15:08.607Z,35.50
2023-05-22T09:17:35.934Z,35.42
2023-05-22T09:20:04.422Z,34.97
2023-05-22T09:22:36.396Z,34.88
2023-05-22T09:25:03.907Z,36.30
2023-05-22T09:27:31.320Z,34.42
2023-05-22T09:30:00.033Z,34.35
2023-05-22T09:32:30.063Z,36.33
2023-05-22T09:35:03.273Z,38.78
2023-05-22T09:37:33.790Z,37.50
2023-05-22T09:40:05.821Z,37.60
2023-05-22T09:42:33.654Z,40.13
2023-05-22T09:45:05.212Z,39.95
2023-05-22T09:47:33.103Z,41.55
2023-05-22T09:50:03.936Z,37.10
2023-05-22T09:52:33.232Z,41.40
2023-05-22T09:55:03.230Z,41.03
2023-05-22T09:57:32.070Z,39.90
2023-05-22T10:00:00.297Z,41.42
2023-05-22T10:02:29.195Z,40.10
2023-05-22T10:04:56.952Z,40.55
2023-05-22T10:07:25.885Z,42.30
2023-05-22T10:09:55.260Z,41.88
2023-05-22T10:12:23.553Z,41.67
2023-05-22T10:14:50.895Z,40.58
2023-05-22T10:17:18.311Z,40.30
2023-05-22T10:19:47.927Z,40.95
2023-05-22T10:22:20.750Z,41.45
2023-05-22T10:24:48.893Z,40.65
2023-05-22T10:27:16.274Z,41.83
2023-05-22T10:29:47.669Z,43.60
2023-05-22T10:32:19.430Z,41.65
2023-05-22T10:34:51.836Z,42.60
2023-05-22T10:37:26.112Z,43.60
2023-05-22T10:39:57.822Z,44.28
2023-05-22T10:42:25.400Z,44.33
2023-05-22T10:44:54.097Z,45.28
2023-05-22T10:47:21.481Z,45.10
2023-05-22T10:49:51.104Z,43.20
2023-05-22T10:52:21.770Z,42.38
2023-05-22T10:54:53.488Z,42.53
2023-05-22T10:57:21.469Z,44.28
2023-05-22T10:59:48.912Z,42.40
2023-05-22T11:02:20.586Z,42.50
2023-05-22T11:04:48.097Z,45.30
2023-05-22T11:07:16.817Z,43.92
2023-05-22T11:09:45.880Z,44.30
2023-05-22T11:12:16.098Z,47.47
2023-05-22T11:14:43.410Z,45.47
2023-05-22T11:17:13.180Z,45.58
2023-05-22T11:19:41.452Z,45.83
2023-05-22T11:22:08.810Z,46.85
2023-05-22T11:24:38.258Z,45.38
2023-05-22T11:27:06.620Z,44.58
2023-05-22T11:29:34.134Z,45.78
2023-05-22T11:32:02.161Z,44.17
2023-05-22T11:34:29.587Z,44.20
2023-05-22T11:37:00.496Z,45.42
2023-05-22T11:39:28.181Z,43.88
2023-05-22T11:41:56.850Z,42.55
2023-05-22T11:44:24.316Z,46.92
2023-05-22T11:46:52.225Z,41.35
2023-05-22T11:49:23.781Z,42.00
2023-05-22T11:51:51.174Z,43.55
2023-05-22T11:54:18.756Z,45.75
2023-05-22T11:56:46.282Z,42.92
2023-05-22T11:59:14.928Z,42.53
2023-05-22T12:01:42.251Z,41.83
2023-05-22T12:04:09.617Z,41.38
2023-05-22T12:06:37.022Z,43.15
2023-05-22T12:09:04.615Z,44.35
2023-05-22T12:11:35.422Z,42.67
2023-05-22T12:14:02.790Z,40.55
2023-05-22T12:16:35.087Z,39.92
2023-05-22T12:19:05.465Z,41.90
2023-05-22T12:21:32.881Z,39.90
2023-05-22T12:24:03.728Z,43.75
2023-05-22T12:26:31.374Z,41.33
2023-05-22T12:28:58.917Z,41.58
2023-05-22T12:31:26.349Z,39.97
2023-05-22T12:33:58.393Z,37.15
2023-05-22T12:36:33.632Z,36.53
2023-05-22T12:39:00.997Z,36.20
2023-05-22T12:41:28.332Z,35.28
2023-05-22T12:43:55.664Z,35.00
2023-05-22T12:46:23.046Z,38.13
2023-05-22T12:48:50.547Z,31.35
2023-05-22T12:51:20.086Z,32.38
2023-05-22T12:53:47.969Z,36.85
2023-05-22T12:56:15.520Z,34.22
2023-05-22T12:58:43.648Z,32.78
2023-05-22T13:01:11.105Z,35.25
2023-05-22T13:03:38.422Z,34.15
2023-05-22T13:06:05.827Z,33.72
2023-05-22T13:08:34.450Z,37.08
2023-05-22T13:11:02.876Z,37.63
2023-05-22T13:13:30.181Z,37.42
2023-05-22T13:15:57.728Z,38.72
2023-05-22T13:18:25.105Z,37.60
2023-05-22T13:20:52.447Z,37.25
2023-05-22T13:23:19.770Z,37.83
2023-05-22T13:25:48.431Z,37.08
2023-05-22T13:28:15.779Z,36.22
2023-05-22T13:30:43.073Z,37.60
2023-05-22T13:33:10.777Z,36.90
2023-05-22T13:35:38.309Z,37.80
2023-05-22T13:38:05.892Z,37.72
2023-05-22T13:40:33.216Z,39.13
2023-05-22T13:43:01.907Z,36.25
2023-05-22T13:45:29.248Z,36.40
2023-05-22T13:47:56.576Z,37.50
2023-05-22T13:50:23.939Z,38.20
2023-05-22T13:52:51.231Z,38.75
2023-05-22T13:55:18.648Z,40.25
2023-05-22T13:57:45.969Z,40.40
2023-05-22T14:00:15.587Z,40.58
2023-05-22T14:02:43.058Z,40.85
2023-05-22T14:05:10.777Z,41.22
2023-05-22T14:07:38.107Z,40.65
2023-05-22T14:10:05.774Z,40.50
2023-05-22T14:12:33.105Z,40.13
2023-05-22T14:15:00.630Z,40.50
2023-05-22T14:17:29.526Z,40.72
2023-05-22T14:19:57.991Z,39.67
2023-05-22T14:22:25.417Z,39.63
2023-05-22T14:24:52.713Z,44.15
2023-05-22T14:27:20.064Z,43.10
2023-05-22T14:29:48.022Z,42.80
2023-05-22T14:32:15.348Z,43.10
2023-05-22T14:34:44.049Z,42.88
2023-05-22T14:37:11.376Z,43.38
2023-05-22T14:39:38.735Z,40.22
2023-05-22T14:42:06.108Z,41.90
2023-05-22T14:44:33.468Z,41.33
2023-05-22T14:47:00.785Z,42.40
2023-05-22T14:49:28.138Z,44.15
2023-05-22T14:51:56.806Z,44.03
2023-05-22T14:54:24.184Z,44.78
2023-05-22T14:56:51.512Z,43.75
2023-05-22T14:59:18.916Z,44.47
2023-05-22T15:01:49.964Z,44.95
2023-05-22T15:04:17.709Z,45.67
2023-05-22T15:06:45.189Z,46.78
2023-05-22T15:09:13.859Z,45.75
2023-05-22T15:11:45.444Z,44.47
2023-05-22T15:14:12.779Z,45.58
2023-05-22T15:16:40.149Z,45.42
2023-05-22T15:19:07.564Z,47.35
2023-05-22T15:21:34.981Z,46.35
2023-05-22T15:24:03.074Z,47.38
2023-05-22T15:26:32.207Z,46.40
2023-05-22T15:29:01.261Z,46.30
2023-05-22T15:31:29.228Z,47.25
2023-05-22T15:33:56.803Z,48.50
2023-05-22T15:36:24.277Z,48.15
2023-05-22T15:38:51.595Z,48.25
2023-05-22T15:41:18.971Z,47.53
2023-05-22T15:43:48.392Z,51.20
2023-05-22T15:46:16.792Z,47.83
2023-05-22T15:48:44.403Z,49.58
2023-05-22T15:51:11.753Z,48.95
2023-05-22T15:53:39.310Z,46.30
2023-05-22T15:56:06.876Z,46.40
2023-05-22T15:58:34.234Z,47.42
2023-05-22T16:01:03.055Z,48.03
2023-05-22T16:03:30.536Z,42.35
2023-05-22T16:05:57.921Z,47.08
2023-05-22T16:08:25.242Z,49.20
2023-05-22T16:10:52.583Z,49.20
2023-05-22T16:13:20.133Z,47.53
2023-05-22T16:15:47.502Z,47.28
2023-05-22T16:18:16.265Z,50.67
2023-05-22T16:20:43.650Z,48.53
2023-05-22T16:23:10.978Z,48.45
2023-05-22T16:25:38.615Z,50.00
2023-05-22T16:28:06.436Z,49.45
2023-05-22T16:30:33.891Z,50.78
2023-05-22T16:33:01.308Z,53.10
2023-05-22T16:35:30.406Z,53.28
2023-05-22T16:37:57.743Z,53.08
2023-05-22T16:40:25.144Z,50.05
2023-05-22T16:42:52.505Z,51.47
2023-05-22T16:45:19.849Z,51.80
2023-05-22T16:47:47.272Z,52.05
2023-05-22T16:50:14.679Z,53.15
2023-05-22T16:52:43.392Z,50.40
2023-05-22T16:55:11.025Z,53.28
2023-05-22T16:57:39.045Z,52.42
2023-05-22T17:00:07.319Z,50.42
2023-05-22T17:02:34.876Z,48.13
2023-05-22T17:05:02.312Z,52.47
2023-05-22T17:07:31.600Z,50.67
2023-05-22T17:10:00.889Z,53.15
2023-05-22T17:12:28.288Z,52.42
2023-05-22T17:14:55.786Z,52.78
2023-05-22T17:17:23.131Z,52.53
2023-05-22T17:19:50.500Z,49.92
2023-05-22T17:22:17.862Z,49.85
2023-05-22T17:24:45.242Z,49.00
2023-05-22T17:27:20.819Z,45.15
2023-05-22T17:29:59.224Z,48.45
2023-05-22T17:32:26.811Z,49.47
2023-05-22T17:34:54.245Z,48.17
2023-05-22T17:37:21.562Z,48.03
2023-05-22T17:39:48.885Z,47.00
2023-05-22T17:42:17.827Z,49.70
2023-05-22T17:44:45.173Z,47.38
2023-05-22T17:47:13.235Z,48.88
2023-05-22T17:49:40.605Z,48.22
2023-05-22T17:52:08.477Z,46.78
2023-05-22T17:54:36.102Z,46.60
2023-05-22T17:57:04.107Z,46.20
2023-05-22T17:59:33.206Z,48.17
2023-05-22T18:02:00.649Z,46.38
2023-05-22T18:04:28.035Z,45.05
2023-05-22T18:06:55.400Z,45.92
2023-05-22T18:09:22.764Z,45.88
2023-05-22T18:11:50.621Z,44.35
2023-05-22T18:14:18.012Z,44.75
2023-05-22T18:16:46.736Z,45.13
2023-05-22T18:19:14.101Z,45.00
2023-05-22T18:21:41.784Z,43.72
2023-05-22T18:24:09.191Z,31.73
2023-05-22T18:26:36.598Z,22.92
2023-05-22T18:29:03.923Z,18.55
2023-05-22T18:31:31.541Z,16.60
2023-05-22T18:34:00.223Z,13.32
2023-05-22T18:36:27.633Z,13.75
2023-05-22T18:38:55.315Z,14.73
2023-05-22T18:41:22.627Z,13.32
2023-05-22T18:43:49.957Z,12.48
2023-05-22T18:46:17.354Z,12.90
2023-05-22T18:48:49.406Z,12.82
2023-05-22T18:51:19.704Z,12.45
2023-05-22T18:53:47.025Z,11.43
2023-05-22T18:56:14.406Z,11.75
2023-05-22T18:58:41.725Z,12.07
2023-05-22T19:01:09.327Z,12.10
2023-05-22T19:03:36.650Z,11.68
2023-05-22T19:06:04.376Z,12.55
2023-05-22T19:08:34.540Z,12.23
2023-05-22T19:11:01.989Z,13.18
2023-05-22T19:13:29.612Z,12.02
2023-05-22T19:15:58.091Z,13.40
2023-05-22T19:18:27.265Z,12.95
2023-05-22T19:20:54.670Z,12.55
2023-05-22T19:23:22.042Z,13.93
2023-05-22T19:25:50.765Z,13.20
2023-05-22T19:28:18.117Z,13.45
2023-05-22T19:30:45.855Z,12.93
2023-05-22T19:33:14.532Z,12.57
2023-05-22T19:35:41.935Z,13.95
2023-05-22T19:38:09.297Z,14.07
2023-05-22T19:40:36.733Z,13.95
2023-05-22T19:43:05.671Z,14.65
2023-05-22T19:45:33.024Z,15.60
2023-05-22T19:48:00.501Z,15.20
2023-05-22T19:50:27.914Z,15.52
2023-05-22T19:52:55.334Z,15.15
2023-05-22T19:55:22.812Z,16.10
2023-05-22T19:57:50.174Z,16.67
2023-05-22T20:00:19.505Z,16.42
2023-05-22T20:02:46.928Z,17.80
2023-05-22T20:05:14.385Z,16.67
2023-05-22T20:07:43.079Z,17.63
2023-05-22T20:10:11.090Z,16.38
2023-05-22T20:12:38.445Z,14.93
2023-05-22T20:15:07.005Z,15.88
2023-05-22T20:17:36.043Z,15.00
2023-05-22T20:20:07.313Z,14.77
2023-05-22T20:22:34.717Z,16.10
2023-05-22T20:25:02.265Z,14.77
2023-05-22T20:27:29.578Z,14.88
2023-05-22T20:29:59.341Z,14.98
2023-05-22T20:32:27.464Z,15.00
2023-05-22T20:34:56.339Z,15.10
2023-05-22T20:37:23.711Z,15.50
2023-05-22T20:39:51.696Z,16.02
2023-05-22T20:42:19.180Z,14.63
2023-05-22T20:44:46.702Z,15.65
2023-05-22T20:47:14.091Z,15.95
2023-05-22T20:49:41.445Z,15.68
2023-05-22T20:52:13.284Z,15.80
2023-05-22T20:54:41.190Z,15.90
2023-05-22T20:57:08.548Z,15.23
2023-05-22T20:59:37.373Z,15.32
2023-05-22T21:02:04.863Z,15.05
2023-05-22T21:04:32.358Z,15.73
2023-05-22T21:06:59.748Z,15.40
2023-05-22T21:09:28.460Z,15.35
2023-05-22T21:11:55.831Z,13.73
2023-05-22T21:14:23.174Z,13.85
2023-05-22T21:16:50.546Z,13.40
2023-05-22T21:19:17.971Z,13.02
2023-05-22T21:21:45.322Z,13.02
2023-05-22T21:24:12.780Z,12.70
2023-05-22T21:26:41.632Z,13.32
2023-05-22T21:29:09.030Z,13.00
2023-05-22T21:31:36.425Z,13.18
2023-05-22T21:34:03.912Z,11.95
2023-05-22T21:36:31.766Z,11.55
2023-05-22T21:39:00.277Z,11.77
2023-05-22T21:41:28.215Z,11.85
2023-05-22T21:43:57.572Z,11.40
2023-05-22T21:46:24.980Z,11.45
2023-05-22T21:48:53.493Z,12.77
2023-05-22T21:51:20.884Z,13.82
2023-05-22T21:53:48.217Z,13.65
2023-05-22T21:56:15.565Z,13.02
2023-05-22T21:58:42.940Z,13.60
2023-05-22T22:01:11.774Z,13.57
2023-05-22T22:03:39.587Z,13.05
2023-05-22T22:06:07.261Z,13.00
2023-05-22T22:08:34.611Z,14.55
2023-05-22T22:11:01.968Z,14.18
2023-05-22T22:13:29.320Z,14.18
2023-05-22T22:15:57.605Z,14.65
2023-05-22T22:18:26.314Z,14.40
2023-05-22T22:20:54.083Z,14.73
2023-05-22T22:23:21.695Z,14.43
2023-05-22T22:25:49.079Z,14.00
2023-05-22T22:28:16.540Z,14.02
2023-05-22T22:30:43.894Z,12.88
2023-05-22T22:33:11.510Z,13.20
2023-05-22T22:35:40.549Z,14.15
2023-05-22T22:38:08.062Z,13.02
2023-05-22T22:40:35.472Z,13.23
2023-05-22T22:43:03.572Z,13.02
2023-05-22T22:45:31.168Z,12.82
2023-05-22T22:48:00.461Z,12.80
2023-05-22T22:50:28.007Z,13.85
2023-05-22T22:52:56.721Z,13.48
2023-05-22T22:55:24.130Z,14.00
2023-05-22T22:57:51.806Z,13.63
2023-05-22T23:00:20.067Z,13.35
2023-05-22T23:02:47.455Z,12.60
2023-05-22T23:05:19.633Z,12.95
2023-05-22T23:07:47.390Z,12.00
2023-05-22T23:10:16.370Z,11.55
2023-05-22T23:12:43.720Z,11.65
2023-05-22T23:15:13.226Z,11.57
2023-05-22T23:17:40.950Z,11.55
2023-05-22T23:20:09.750Z,11.63
2023-05-22T23:22:37.257Z,10.82
2023-05-22T23:25:04.737Z,10.10
2023-05-22T23:27:33.526Z,11.20
2023-05-22T23:30:01.141Z,10.80
2023-05-22T23:32:29.441Z,11.00
2023-05-22T23:34:56.823Z,11.25
2023-05-22T23:37:24.287Z,11.18
2023-05-22T23:39:51.663Z,11.40
2023-05-22T23:42:19.069Z,10.55
2023-05-22T23:44:47.772Z,10.98
2023-05-22T23:47:16.633Z,11.85
2023-05-22T23:49:43.952Z,12.27
2023-05-22T23:52:12.186Z,12.52
2023-05-22T23:54:39.660Z,12.43
2023-05-22T23:57:07.054Z,12.88
2023-05-22T23:59:34.415Z,13.15
